sensor_id;sensor_type;location;lat;lon;timestamp;P1;durP1;ratioP1;P2;durP2;ratioP2
67372;SDS011;54257;54.496;18.412;2022-07-29T00:02:13;2.40;;;2.20;;
67372;SDS011;54257;54.496;18.412;2022-07-29T00:04:40;4.90;;;2.20;;
67372;SDS011;54257;54.496;18.412;2022-07-29T00:07:08;2.80;;;2.10;;
67372;SDS011;54257;54.496;18.412;2022-07-29T00:09:35;4.30;;;2.40;;
67372;SDS011;54257;54.496;18.412;2022-07-29T00:12:04;3.10;;;2.70;;
67372;SDS011;54257;54.496;18.412;2022-07-29T00:14:31;3.00;;;2.00;;
67372;SDS011;54257;54.496;18.412;2022-07-29T00:16:58;2.60;;;1.80;;
67372;SDS011;54257;54.496;18.412;2022-07-29T00:19:25;1.90;;;1.70;;
67372;SDS011;54257;54.496;18.412;2022-07-29T00:21:53;2.10;;;1.90;;
67372;SDS011;54257;54.496;18.412;2022-07-29T00:24:20;2.00;;;1.80;;
67372;SDS011;54257;54.496;18.412;2022-07-29T00:26:47;2.90;;;1.50;;
67372;SDS011;54257;54.496;18.412;2022-07-29T00:29:14;4.60;;;2.40;;
67372;SDS011;54257;54.496;18.412;2022-07-29T00:31:41;3.90;;;2.50;;
67372;SDS011;54257;54.496;18.412;2022-07-29T00:34:08;5.00;;;2.20;;
67372;SDS011;54257;54.496;18.412;2022-07-29T00:36:55;2.20;;;1.70;;
67372;SDS011;54257;54.496;18.412;2022-07-29T00:39:23;2.80;;;2.10;;
67372;SDS011;54257;54.496;18.412;2022-07-29T00:41:50;3.30;;;2.10;;
67372;SDS011;54257;54.496;18.412;2022-07-29T00:44:18;5.20;;;3.50;;
67372;SDS011;54257;54.496;18.412;2022-07-29T00:46:46;3.60;;;2.30;;
67372;SDS011;54257;54.496;18.412;2022-07-29T00:49:13;3.00;;;2.00;;
67372;SDS011;54257;54.496;18.412;2022-07-29T00:51:40;2.90;;;2.10;;
67372;SDS011;54257;54.496;18.412;2022-07-29T00:54:10;4.40;;;1.90;;
67372;SDS011;54257;54.496;18.412;2022-07-29T00:56:38;5.00;;;2.00;;
67372;SDS011;54257;54.496;18.412;2022-07-29T00:59:06;2.70;;;2.20;;
67372;SDS011;54257;54.496;18.412;2022-07-29T01:01:34;6.20;;;2.50;;
67372;SDS011;54257;54.496;18.412;2022-07-29T01:04:01;3.60;;;1.70;;
67372;SDS011;54257;54.496;18.412;2022-07-29T01:06:28;2.60;;;2.00;;
67372;SDS011;54257;54.496;18.412;2022-07-29T01:08:56;1.90;;;1.60;;
67372;SDS011;54257;54.496;18.412;2022-07-29T01:11:27;3.50;;;2.30;;
67372;SDS011;54257;54.496;18.412;2022-07-29T01:13:54;3.20;;;1.90;;
67372;SDS011;54257;54.496;18.412;2022-07-29T01:16:28;3.30;;;1.80;;
67372;SDS011;54257;54.496;18.412;2022-07-29T01:22:19;2.70;;;1.60;;
67372;SDS011;54257;54.496;18.412;2022-07-29T01:30:35;2.90;;;2.10;;
67372;SDS011;54257;54.496;18.412;2022-07-29T01:33:07;2.10;;;1.80;;
67372;SDS011;54257;54.496;18.412;2022-07-29T01:36:01;2.60;;;1.70;;
67372;SDS011;54257;54.496;18.412;2022-07-29T01:38:34;3.30;;;2.10;;
67372;SDS011;54257;54.496;18.412;2022-07-29T01:41:15;3.40;;;1.80;;
67372;SDS011;54257;54.496;18.412;2022-07-29T01:43:50;3.20;;;2.00;;
67372;SDS011;54257;54.496;18.412;2022-07-29T01:46:25;4.50;;;2.40;;
67372;SDS011;54257;54.496;18.412;2022-07-29T01:48:58;4.80;;;3.70;;
67372;SDS011;54257;54.496;18.412;2022-07-29T01:51:35;5.60;;;3.80;;
67372;SDS011;54257;54.496;18.412;2022-07-29T01:54:16;4.10;;;3.60;;
67372;SDS011;54257;54.496;18.412;2022-07-29T01:56:57;4.70;;;3.50;;
67372;SDS011;54257;54.496;18.412;2022-07-29T01:59:26;6.10;;;3.20;;
67372;SDS011;54257;54.496;18.412;2022-07-29T02:01:56;3.40;;;3.10;;
67372;SDS011;54257;54.496;18.412;2022-07-29T02:04:24;4.10;;;3.20;;
67372;SDS011;54257;54.496;18.412;2022-07-29T02:06:54;7.90;;;3.80;;
67372;SDS011;54257;54.496;18.412;2022-07-29T02:09:25;4.10;;;3.10;;
67372;SDS011;54257;54.496;18.412;2022-07-29T02:11:53;4.40;;;3.40;;
67372;SDS011;54257;54.496;18.412;2022-07-29T02:14:22;7.90;;;4.00;;
67372;SDS011;54257;54.496;18.412;2022-07-29T02:16:53;6.90;;;4.60;;
67372;SDS011;54257;54.496;18.412;2022-07-29T02:19:23;6.40;;;3.80;;
67372;SDS011;54257;54.496;18.412;2022-07-29T02:21:53;5.00;;;3.80;;
67372;SDS011;54257;54.496;18.412;2022-07-29T02:24:23;5.50;;;4.20;;
67372;SDS011;54257;54.496;18.412;2022-07-29T02:26:53;6.90;;;4.70;;
67372;SDS011;54257;54.496;18.412;2022-07-29T02:29:26;6.80;;;4.30;;
67372;SDS011;54257;54.496;18.412;2022-07-29T02:31:55;6.50;;;4.00;;
67372;SDS011;54257;54.496;18.412;2022-07-29T02:34:25;4.90;;;4.20;;
67372;SDS011;54257;54.496;18.412;2022-07-29T02:36:53;5.90;;;4.60;;
67372;SDS011;54257;54.496;18.412;2022-07-29T02:39:22;7.50;;;4.10;;
67372;SDS011;54257;54.496;18.412;2022-07-29T02:42:01;5.70;;;3.90;;
67372;SDS011;54257;54.496;18.412;2022-07-29T02:44:32;6.80;;;4.00;;
67372;SDS011;54257;54.496;18.412;2022-07-29T02:52:27;5.70;;;4.10;;
67372;SDS011;54257;54.496;18.412;2022-07-29T02:55:22;4.70;;;3.50;;
67372;SDS011;54257;54.496;18.412;2022-07-29T03:01:08;5.60;;;3.30;;
67372;SDS011;54257;54.496;18.412;2022-07-29T03:03:44;11.50;;;4.40;;
67372;SDS011;54257;54.496;18.412;2022-07-29T03:06:13;9.60;;;4.10;;
67372;SDS011;54257;54.496;18.412;2022-07-29T03:08:41;7.00;;;3.50;;
67372;SDS011;54257;54.496;18.412;2022-07-29T03:11:11;10.50;;;3.50;;
67372;SDS011;54257;54.496;18.412;2022-07-29T03:13:39;15.90;;;3.70;;
67372;SDS011;54257;54.496;18.412;2022-07-29T03:16:09;4.30;;;2.70;;
67372;SDS011;54257;54.496;18.412;2022-07-29T03:18:38;3.50;;;2.10;;
67372;SDS011;54257;54.496;18.412;2022-07-29T03:21:05;4.40;;;3.00;;
67372;SDS011;54257;54.496;18.412;2022-07-29T03:23:34;7.30;;;3.70;;
67372;SDS011;54257;54.496;18.412;2022-07-29T03:26:03;8.10;;;4.20;;
67372;SDS011;54257;54.496;18.412;2022-07-29T03:28:30;8.30;;;4.30;;
67372;SDS011;54257;54.496;18.412;2022-07-29T03:30:57;6.60;;;3.80;;
67372;SDS011;54257;54.496;18.412;2022-07-29T03:33:24;6.80;;;3.50;;
67372;SDS011;54257;54.496;18.412;2022-07-29T03:35:51;12.30;;;5.50;;
67372;SDS011;54257;54.496;18.412;2022-07-29T03:38:18;8.50;;;5.40;;
67372;SDS011;54257;54.496;18.412;2022-07-29T03:40:51;10.70;;;6.50;;
67372;SDS011;54257;54.496;18.412;2022-07-29T03:43:20;11.40;;;6.20;;
67372;SDS011;54257;54.496;18.412;2022-07-29T03:45:52;10.70;;;5.80;;
67372;SDS011;54257;54.496;18.412;2022-07-29T03:48:22;7.10;;;4.20;;
67372;SDS011;54257;54.496;18.412;2022-07-29T03:50:53;6.90;;;3.40;;
67372;SDS011;54257;54.496;18.412;2022-07-29T03:53:20;6.20;;;3.60;;
67372;SDS011;54257;54.496;18.412;2022-07-29T03:55:48;5.50;;;3.90;;
67372;SDS011;54257;54.496;18.412;2022-07-29T04:00:48;6.10;;;4.70;;
67372;SDS011;54257;54.496;18.412;2022-07-29T04:03:16;9.00;;;4.70;;
67372;SDS011;54257;54.496;18.412;2022-07-29T04:05:43;10.80;;;3.90;;
67372;SDS011;54257;54.496;18.412;2022-07-29T04:08:24;9.30;;;4.20;;
67372;SDS011;54257;54.496;18.412;2022-07-29T04:10:51;8.00;;;4.20;;
67372;SDS011;54257;54.496;18.412;2022-07-29T04:13:19;12.00;;;5.00;;
67372;SDS011;54257;54.496;18.412;2022-07-29T04:15:46;11.90;;;4.80;;
67372;SDS011;54257;54.496;18.412;2022-07-29T04:18:13;6.20;;;3.80;;
67372;SDS011;54257;54.496;18.412;2022-07-29T04:20:43;9.50;;;3.30;;
67372;SDS011;54257;54.496;18.412;2022-07-29T04:23:10;5.30;;;3.50;;
67372;SDS011;54257;54.496;18.412;2022-07-29T04:25:38;9.40;;;4.00;;
67372;SDS011;54257;54.496;18.412;2022-07-29T04:28:09;12.10;;;3.80;;
67372;SDS011;54257;54.496;18.412;2022-07-29T04:30:37;10.80;;;4.00;;
67372;SDS011;54257;54.496;18.412;2022-07-29T04:33:05;10.40;;;3.70;;
67372;SDS011;54257;54.496;18.412;2022-07-29T04:35:34;12.10;;;4.40;;
67372;SDS011;54257;54.496;18.412;2022-07-29T04:38:05;5.10;;;3.70;;
67372;SDS011;54257;54.496;18.412;2022-07-29T04:40:33;5.40;;;3.40;;
67372;SDS011;54257;54.496;18.412;2022-07-29T04:43:01;7.10;;;3.70;;
67372;SDS011;54257;54.496;18.412;2022-07-29T04:45:28;7.70;;;3.20;;
67372;SDS011;54257;54.496;18.412;2022-07-29T04:47:55;7.90;;;3.70;;
67372;SDS011;54257;54.496;18.412;2022-07-29T04:50:22;3.90;;;3.40;;
67372;SDS011;54257;54.496;18.412;2022-07-29T04:52:49;4.20;;;3.60;;
67372;SDS011;54257;54.496;18.412;2022-07-29T04:55:17;4.70;;;3.40;;
67372;SDS011;54257;54.496;18.412;2022-07-29T04:57:44;5.50;;;3.60;;
67372;SDS011;54257;54.496;18.412;2022-07-29T05:00:12;10.00;;;4.10;;
67372;SDS011;54257;54.496;18.412;2022-07-29T05:02:40;9.00;;;4.50;;
67372;SDS011;54257;54.496;18.412;2022-07-29T05:05:07;9.70;;;4.30;;
67372;SDS011;54257;54.496;18.412;2022-07-29T05:07:34;7.30;;;4.40;;
67372;SDS011;54257;54.496;18.412;2022-07-29T05:10:01;11.00;;;4.70;;
67372;SDS011;54257;54.496;18.412;2022-07-29T05:12:29;10.00;;;4.80;;
67372;SDS011;54257;54.496;18.412;2022-07-29T05:14:56;4.80;;;4.30;;
67372;SDS011;54257;54.496;18.412;2022-07-29T05:17:23;5.40;;;3.50;;
67372;SDS011;54257;54.496;18.412;2022-07-29T05:19:54;5.60;;;3.80;;
67372;SDS011;54257;54.496;18.412;2022-07-29T05:22:24;5.90;;;4.00;;
67372;SDS011;54257;54.496;18.412;2022-07-29T05:24:51;6.30;;;3.40;;
67372;SDS011;54257;54.496;18.412;2022-07-29T05:27:18;7.00;;;3.60;;
67372;SDS011;54257;54.496;18.412;2022-07-29T05:29:45;7.50;;;3.70;;
67372;SDS011;54257;54.496;18.412;2022-07-29T05:32:12;6.20;;;4.10;;
67372;SDS011;54257;54.496;18.412;2022-07-29T05:34:40;3.40;;;2.70;;
67372;SDS011;54257;54.496;18.412;2022-07-29T05:37:08;8.70;;;4.80;;
67372;SDS011;54257;54.496;18.412;2022-07-29T05:39:36;8.00;;;2.50;;
67372;SDS011;54257;54.496;18.412;2022-07-29T05:42:03;5.00;;;2.00;;
67372;SDS011;54257;54.496;18.412;2022-07-29T05:44:36;2.60;;;1.70;;
67372;SDS011;54257;54.496;18.412;2022-07-29T05:47:05;7.60;;;1.40;;
67372;SDS011;54257;54.496;18.412;2022-07-29T05:49:33;3.40;;;1.80;;
67372;SDS011;54257;54.496;18.412;2022-07-29T05:52:00;3.50;;;1.30;;
67372;SDS011;54257;54.496;18.412;2022-07-29T05:54:31;5.60;;;1.70;;
67372;SDS011;54257;54.496;18.412;2022-07-29T05:56:59;11.40;;;3.00;;
67372;SDS011;54257;54.496;18.412;2022-07-29T05:59:26;13.90;;;3.10;;
67372;SDS011;54257;54.496;18.412;2022-07-29T06:01:53;15.30;;;3.50;;
67372;SDS011;54257;54.496;18.412;2022-07-29T06:04:20;2.10;;;1.40;;
67372;SDS011;54257;54.496;18.412;2022-07-29T06:06:47;4.10;;;1.20;;
67372;SDS011;54257;54.496;18.412;2022-07-29T06:09:14;58.30;;;10.10;;
67372;SDS011;54257;54.496;18.412;2022-07-29T06:11:42;18.40;;;3.30;;
67372;SDS011;54257;54.496;18.412;2022-07-29T06:14:09;4.00;;;1.30;;
67372;SDS011;54257;54.496;18.412;2022-07-29T06:16:36;2.30;;;1.00;;
67372;SDS011;54257;54.496;18.412;2022-07-29T06:19:03;2.30;;;1.10;;
67372;SDS011;54257;54.496;18.412;2022-07-29T06:21:31;4.80;;;1.70;;
67372;SDS011;54257;54.496;18.412;2022-07-29T06:23:58;1.50;;;0.70;;
67372;SDS011;54257;54.496;18.412;2022-07-29T06:26:25;1.30;;;0.60;;
67372;SDS011;54257;54.496;18.412;2022-07-29T06:28:52;2.10;;;1.00;;
67372;SDS011;54257;54.496;18.412;2022-07-29T06:31:19;1.60;;;0.80;;
67372;SDS011;54257;54.496;18.412;2022-07-29T06:33:46;6.90;;;2.00;;
67372;SDS011;54257;54.496;18.412;2022-07-29T06:36:13;1.10;;;0.80;;
67372;SDS011;54257;54.496;18.412;2022-07-29T06:38:40;1.50;;;0.70;;
67372;SDS011;54257;54.496;18.412;2022-07-29T06:41:07;1.90;;;1.00;;
67372;SDS011;54257;54.496;18.412;2022-07-29T06:43:39;6.50;;;1.40;;
67372;SDS011;54257;54.496;18.412;2022-07-29T06:46:11;1.10;;;0.90;;
67372;SDS011;54257;54.496;18.412;2022-07-29T06:48:40;3.00;;;0.60;;
67372;SDS011;54257;54.496;18.412;2022-07-29T06:51:09;0.80;;;0.60;;
67372;SDS011;54257;54.496;18.412;2022-07-29T06:53:38;1.00;;;0.80;;
67372;SDS011;54257;54.496;18.412;2022-07-29T06:56:08;2.30;;;0.60;;
67372;SDS011;54257;54.496;18.412;2022-07-29T06:58:35;3.10;;;0.70;;
67372;SDS011;54257;54.496;18.412;2022-07-29T07:01:03;1.20;;;0.80;;
67372;SDS011;54257;54.496;18.412;2022-07-29T07:03:32;4.20;;;1.10;;
67372;SDS011;54257;54.496;18.412;2022-07-29T07:06:01;5.20;;;1.00;;
67372;SDS011;54257;54.496;18.412;2022-07-29T07:08:28;1.80;;;0.70;;
67372;SDS011;54257;54.496;18.412;2022-07-29T07:10:55;1.40;;;0.90;;
67372;SDS011;54257;54.496;18.412;2022-07-29T07:13:23;3.60;;;1.00;;
67372;SDS011;54257;54.496;18.412;2022-07-29T07:15:52;1.90;;;1.00;;
67372;SDS011;54257;54.496;18.412;2022-07-29T07:18:19;2.20;;;1.00;;
67372;SDS011;54257;54.496;18.412;2022-07-29T07:20:47;2.40;;;1.10;;
67372;SDS011;54257;54.496;18.412;2022-07-29T07:23:14;1.50;;;0.80;;
67372;SDS011;54257;54.496;18.412;2022-07-29T07:25:44;3.20;;;0.90;;
67372;SDS011;54257;54.496;18.412;2022-07-29T07:28:11;2.60;;;0.80;;
67372;SDS011;54257;54.496;18.412;2022-07-29T07:30:39;1.80;;;1.10;;
67372;SDS011;54257;54.496;18.412;2022-07-29T07:33:06;3.40;;;1.00;;
67372;SDS011;54257;54.496;18.412;2022-07-29T07:35:33;1.70;;;0.90;;
67372;SDS011;54257;54.496;18.412;2022-07-29T07:38:00;4.00;;;0.90;;
67372;SDS011;54257;54.496;18.412;2022-07-29T07:40:27;1.50;;;0.90;;
67372;SDS011;54257;54.496;18.412;2022-07-29T07:42:54;2.10;;;1.20;;
67372;SDS011;54257;54.496;18.412;2022-07-29T07:45:21;1.70;;;0.80;;
67372;SDS011;54257;54.496;18.412;2022-07-29T07:47:48;1.00;;;0.90;;
67372;SDS011;54257;54.496;18.412;2022-07-29T07:50:19;3.60;;;1.20;;
67372;SDS011;54257;54.496;18.412;2022-07-29T07:52:53;3.90;;;1.10;;
67372;SDS011;54257;54.496;18.412;2022-07-29T07:55:24;1.40;;;0.80;;
67372;SDS011;54257;54.496;18.412;2022-07-29T07:57:53;2.20;;;0.90;;
67372;SDS011;54257;54.496;18.412;2022-07-29T08:00:24;1.80;;;1.00;;
67372;SDS011;54257;54.496;18.412;2022-07-29T08:02:51;1.60;;;0.90;;
67372;SDS011;54257;54.496;18.412;2022-07-29T08:05:21;4.80;;;1.00;;
67372;SDS011;54257;54.496;18.412;2022-07-29T08:07:50;3.50;;;0.90;;
67372;SDS011;54257;54.496;18.412;2022-07-29T08:10:18;0.90;;;0.60;;
67372;SDS011;54257;54.496;18.412;2022-07-29T08:13:07;2.00;;;0.70;;
67372;SDS011;54257;54.496;18.412;2022-07-29T08:15:35;2.70;;;0.70;;
67372;SDS011;54257;54.496;18.412;2022-07-29T08:18:02;4.10;;;0.70;;
67372;SDS011;54257;54.496;18.412;2022-07-29T08:20:29;1.50;;;0.60;;
67372;SDS011;54257;54.496;18.412;2022-07-29T08:22:58;3.90;;;0.60;;
67372;SDS011;54257;54.496;18.412;2022-07-29T08:25:26;0.60;;;0.60;;
67372;SDS011;54257;54.496;18.412;2022-07-29T08:27:53;2.20;;;0.90;;
67372;SDS011;54257;54.496;18.412;2022-07-29T08:30:20;1.60;;;0.70;;
67372;SDS011;54257;54.496;18.412;2022-07-29T08:32:47;0.80;;;0.80;;
67372;SDS011;54257;54.496;18.412;2022-07-29T08:35:15;1.00;;;0.60;;
67372;SDS011;54257;54.496;18.412;2022-07-29T08:37:42;2.20;;;0.70;;
67372;SDS011;54257;54.496;18.412;2022-07-29T08:40:10;3.20;;;0.60;;
67372;SDS011;54257;54.496;18.412;2022-07-29T08:42:37;2.30;;;0.80;;
67372;SDS011;54257;54.496;18.412;2022-07-29T08:45:04;3.40;;;1.30;;
67372;SDS011;54257;54.496;18.412;2022-07-29T08:47:32;1.00;;;0.60;;
67372;SDS011;54257;54.496;18.412;2022-07-29T08:50:00;3.00;;;0.60;;
67372;SDS011;54257;54.496;18.412;2022-07-29T08:52:27;2.10;;;0.60;;
67372;SDS011;54257;54.496;18.412;2022-07-29T08:54:57;3.40;;;0.70;;
67372;SDS011;54257;54.496;18.412;2022-07-29T08:57:25;2.20;;;0.70;;
67372;SDS011;54257;54.496;18.412;2022-07-29T08:59:52;8.90;;;1.40;;
67372;SDS011;54257;54.496;18.412;2022-07-29T09:02:22;3.70;;;0.80;;
67372;SDS011;54257;54.496;18.412;2022-07-29T09:04:49;2.40;;;0.80;;
67372;SDS011;54257;54.496;18.412;2022-07-29T09:07:17;0.80;;;0.80;;
67372;SDS011;54257;54.496;18.412;2022-07-29T09:09:46;3.70;;;0.90;;
67372;SDS011;54257;54.496;18.412;2022-07-29T09:12:15;1.90;;;0.70;;
67372;SDS011;54257;54.496;18.412;2022-07-29T09:14:43;0.90;;;0.50;;
67372;SDS011;54257;54.496;18.412;2022-07-29T09:17:10;1.10;;;0.50;;
67372;SDS011;54257;54.496;18.412;2022-07-29T09:19:37;1.70;;;0.60;;
67372;SDS011;54257;54.496;18.412;2022-07-29T09:22:06;1.10;;;0.60;;
67372;SDS011;54257;54.496;18.412;2022-07-29T09:24:38;1.60;;;0.60;;
67372;SDS011;54257;54.496;18.412;2022-07-29T09:27:08;4.50;;;0.70;;
67372;SDS011;54257;54.496;18.412;2022-07-29T09:29:37;3.10;;;0.60;;
67372;SDS011;54257;54.496;18.412;2022-07-29T09:32:05;1.80;;;0.60;;
67372;SDS011;54257;54.496;18.412;2022-07-29T09:34:39;0.40;;;0.40;;
67372;SDS011;54257;54.496;18.412;2022-07-29T09:37:09;1.60;;;0.50;;
67372;SDS011;54257;54.496;18.412;2022-07-29T09:39:38;1.30;;;0.50;;
67372;SDS011;54257;54.496;18.412;2022-07-29T09:42:12;0.40;;;0.40;;
67372;SDS011;54257;54.496;18.412;2022-07-29T09:44:44;3.40;;;0.40;;
67372;SDS011;54257;54.496;18.412;2022-07-29T09:47:15;0.50;;;0.40;;
67372;SDS011;54257;54.496;18.412;2022-07-29T09:49:51;0.30;;;0.30;;
67372;SDS011;54257;54.496;18.412;2022-07-29T09:52:29;0.50;;;0.40;;
67372;SDS011;54257;54.496;18.412;2022-07-29T09:55:06;1.10;;;0.40;;
67372;SDS011;54257;54.496;18.412;2022-07-29T09:57:34;1.00;;;0.40;;
67372;SDS011;54257;54.496;18.412;2022-07-29T10:00:05;0.90;;;0.40;;
67372;SDS011;54257;54.496;18.412;2022-07-29T10:02:38;1.00;;;0.20;;
67372;SDS011;54257;54.496;18.412;2022-07-29T10:05:16;1.10;;;0.40;;
67372;SDS011;54257;54.496;18.412;2022-07-29T10:07:48;1.40;;;0.40;;
67372;SDS011;54257;54.496;18.412;2022-07-29T10:13:01;0.90;;;0.30;;
67372;SDS011;54257;54.496;18.412;2022-07-29T10:15:30;3.70;;;0.70;;
67372;SDS011;54257;54.496;18.412;2022-07-29T10:17:59;1.60;;;0.50;;
67372;SDS011;54257;54.496;18.412;2022-07-29T10:20:27;0.60;;;0.40;;
67372;SDS011;54257;54.496;18.412;2022-07-29T10:22:54;0.40;;;0.30;;
67372;SDS011;54257;54.496;18.412;2022-07-29T10:25:23;0.10;;;0.10;;
67372;SDS011;54257;54.496;18.412;2022-07-29T10:27:51;2.60;;;0.50;;
67372;SDS011;54257;54.496;18.412;2022-07-29T10:30:20;0.40;;;0.30;;
67372;SDS011;54257;54.496;18.412;2022-07-29T10:35:31;0.30;;;0.30;;
67372;SDS011;54257;54.496;18.412;2022-07-29T10:44:00;0.40;;;0.40;;
67372;SDS011;54257;54.496;18.412;2022-07-29T10:46:36;1.30;;;0.50;;
67372;SDS011;54257;54.496;18.412;2022-07-29T10:49:08;0.20;;;0.20;;
67372;SDS011;54257;54.496;18.412;2022-07-29T10:54:43;0.30;;;0.30;;
67372;SDS011;54257;54.496;18.412;2022-07-29T10:57:23;0.40;;;0.40;;
67372;SDS011;54257;54.496;18.412;2022-07-29T11:05:10;0.40;;;0.30;;
67372;SDS011;54257;54.496;18.412;2022-07-29T11:08:16;0.90;;;0.80;;
67372;SDS011;54257;54.496;18.412;2022-07-29T11:10:50;0.90;;;0.50;;
67372;SDS011;54257;54.496;18.412;2022-07-29T11:16:14;0.80;;;0.50;;
67372;SDS011;54257;54.496;18.412;2022-07-29T11:21:42;2.00;;;0.60;;
67372;SDS011;54257;54.496;18.412;2022-07-29T11:26:45;0.30;;;0.30;;
67372;SDS011;54257;54.496;18.412;2022-07-29T11:29:17;0.50;;;0.50;;
67372;SDS011;54257;54.496;18.412;2022-07-29T11:31:48;0.30;;;0.30;;
67372;SDS011;54257;54.496;18.412;2022-07-29T11:34:23;0.50;;;0.40;;
67372;SDS011;54257;54.496;18.412;2022-07-29T11:39:40;1.40;;;0.50;;
67372;SDS011;54257;54.496;18.412;2022-07-29T11:47:37;0.20;;;0.20;;
67372;SDS011;54257;54.496;18.412;2022-07-29T11:50:08;0.60;;;0.30;;
67372;SDS011;54257;54.496;18.412;2022-07-29T11:52:37;0.30;;;0.30;;
67372;SDS011;54257;54.496;18.412;2022-07-29T11:55:12;0.20;;;0.20;;
67372;SDS011;54257;54.496;18.412;2022-07-29T11:57:46;0.30;;;0.30;;
67372;SDS011;54257;54.496;18.412;2022-07-29T12:00:23;0.40;;;0.40;;
67372;SDS011;54257;54.496;18.412;2022-07-29T12:03:01;1.50;;;0.40;;
67372;SDS011;54257;54.496;18.412;2022-07-29T12:05:31;0.40;;;0.30;;
67372;SDS011;54257;54.496;18.412;2022-07-29T12:08:09;0.40;;;0.40;;
67372;SDS011;54257;54.496;18.412;2022-07-29T12:10:41;0.70;;;0.70;;
67372;SDS011;54257;54.496;18.412;2022-07-29T12:13:10;0.70;;;0.40;;
67372;SDS011;54257;54.496;18.412;2022-07-29T12:15:39;1.50;;;0.50;;
67372;SDS011;54257;54.496;18.412;2022-07-29T12:18:41;0.50;;;0.20;;
67372;SDS011;54257;54.496;18.412;2022-07-29T12:21:00;1.20;;;0.30;;
67372;SDS011;54257;54.496;18.412;2022-07-29T12:23:31;1.20;;;0.40;;
67372;SDS011;54257;54.496;18.412;2022-07-29T12:25:59;0.40;;;0.40;;
67372;SDS011;54257;54.496;18.412;2022-07-29T12:28:27;1.90;;;0.30;;
67372;SDS011;54257;54.496;18.412;2022-07-29T12:30:54;1.10;;;0.40;;
67372;SDS011;54257;54.496;18.412;2022-07-29T12:33:25;0.40;;;0.30;;
67372;SDS011;54257;54.496;18.412;2022-07-29T12:35:59;0.40;;;0.40;;
67372;SDS011;54257;54.496;18.412;2022-07-29T12:38:28;0.40;;;0.40;;
67372;SDS011;54257;54.496;18.412;2022-07-29T12:40:55;1.00;;;0.30;;
67372;SDS011;54257;54.496;18.412;2022-07-29T12:43:23;0.30;;;0.30;;
67372;SDS011;54257;54.496;18.412;2022-07-29T12:45:53;0.40;;;0.40;;
67372;SDS011;54257;54.496;18.412;2022-07-29T12:48:34;0.50;;;0.40;;
67372;SDS011;54257;54.496;18.412;2022-07-29T12:51:08;0.30;;;0.30;;
67372;SDS011;54257;54.496;18.412;2022-07-29T12:53:41;1.10;;;0.40;;
67372;SDS011;54257;54.496;18.412;2022-07-29T12:56:28;2.70;;;0.60;;
67372;SDS011;54257;54.496;18.412;2022-07-29T12:58:55;0.70;;;0.30;;
67372;SDS011;54257;54.496;18.412;2022-07-29T13:01:22;3.00;;;0.40;;
67372;SDS011;54257;54.496;18.412;2022-07-29T13:03:53;0.40;;;0.40;;
67372;SDS011;54257;54.496;18.412;2022-07-29T13:09:18;0.60;;;0.50;;
67372;SDS011;54257;54.496;18.412;2022-07-29T13:11:50;0.40;;;0.40;;
67372;SDS011;54257;54.496;18.412;2022-07-29T13:17:11;0.60;;;0.30;;
67372;SDS011;54257;54.496;18.412;2022-07-29T13:19:43;0.70;;;0.50;;
67372;SDS011;54257;54.496;18.412;2022-07-29T13:22:15;2.40;;;0.60;;
67372;SDS011;54257;54.496;18.412;2022-07-29T13:27:22;0.40;;;0.40;;
67372;SDS011;54257;54.496;18.412;2022-07-29T13:29:51;1.80;;;0.50;;
67372;SDS011;54257;54.496;18.412;2022-07-29T13:32:19;0.90;;;0.50;;
67372;SDS011;54257;54.496;18.412;2022-07-29T13:34:47;1.00;;;0.50;;
67372;SDS011;54257;54.496;18.412;2022-07-29T13:37:14;0.40;;;0.40;;
67372;SDS011;54257;54.496;18.412;2022-07-29T13:39:43;1.10;;;0.40;;
67372;SDS011;54257;54.496;18.412;2022-07-29T13:42:11;0.80;;;0.30;;
67372;SDS011;54257;54.496;18.412;2022-07-29T13:44:42;2.50;;;0.70;;
67372;SDS011;54257;54.496;18.412;2022-07-29T13:47:10;0.40;;;0.40;;
67372;SDS011;54257;54.496;18.412;2022-07-29T13:49:37;0.30;;;0.30;;
67372;SDS011;54257;54.496;18.412;2022-07-29T13:52:05;0.70;;;0.50;;
67372;SDS011;54257;54.496;18.412;2022-07-29T13:54:33;0.40;;;0.40;;
67372;SDS011;54257;54.496;18.412;2022-07-29T13:57:04;0.60;;;0.40;;
67372;SDS011;54257;54.496;18.412;2022-07-29T13:59:31;0.30;;;0.30;;
67372;SDS011;54257;54.496;18.412;2022-07-29T14:01:58;1.40;;;0.50;;
67372;SDS011;54257;54.496;18.412;2022-07-29T14:04:25;0.60;;;0.30;;
67372;SDS011;54257;54.496;18.412;2022-07-29T14:06:52;0.60;;;0.60;;
67372;SDS011;54257;54.496;18.412;2022-07-29T14:09:20;0.50;;;0.50;;
67372;SDS011;54257;54.496;18.412;2022-07-29T14:11:47;1.80;;;0.60;;
67372;SDS011;54257;54.496;18.412;2022-07-29T14:14:16;2.20;;;0.60;;
67372;SDS011;54257;54.496;18.412;2022-07-29T14:16:44;2.00;;;0.50;;
67372;SDS011;54257;54.496;18.412;2022-07-29T14:19:11;0.90;;;0.50;;
67372;SDS011;54257;54.496;18.412;2022-07-29T14:21:38;1.70;;;0.50;;
67372;SDS011;54257;54.496;18.412;2022-07-29T14:24:05;0.40;;;0.40;;
67372;SDS011;54257;54.496;18.412;2022-07-29T14:26:32;2.30;;;0.50;;
67372;SDS011;54257;54.496;18.412;2022-07-29T14:28:59;1.00;;;0.70;;
67372;SDS011;54257;54.496;18.412;2022-07-29T14:31:26;0.50;;;0.40;;
67372;SDS011;54257;54.496;18.412;2022-07-29T14:33:53;2.50;;;0.60;;
67372;SDS011;54257;54.496;18.412;2022-07-29T14:36:21;0.40;;;0.40;;
67372;SDS011;54257;54.496;18.412;2022-07-29T14:38:48;0.40;;;0.40;;
67372;SDS011;54257;54.496;18.412;2022-07-29T14:41:16;0.50;;;0.40;;
67372;SDS011;54257;54.496;18.412;2022-07-29T14:43:45;2.20;;;0.50;;
67372;SDS011;54257;54.496;18.412;2022-07-29T14:46:12;1.20;;;0.80;;
67372;SDS011;54257;54.496;18.412;2022-07-29T14:48:40;1.30;;;0.60;;
67372;SDS011;54257;54.496;18.412;2022-07-29T14:51:07;1.20;;;0.60;;
67372;SDS011;54257;54.496;18.412;2022-07-29T14:53:34;1.20;;;0.40;;
67372;SDS011;54257;54.496;18.412;2022-07-29T14:56:01;1.90;;;0.60;;
67372;SDS011;54257;54.496;18.412;2022-07-29T14:58:28;0.80;;;0.50;;
67372;SDS011;54257;54.496;18.412;2022-07-29T15:00:55;2.20;;;0.60;;
67372;SDS011;54257;54.496;18.412;2022-07-29T15:03:25;0.60;;;0.60;;
67372;SDS011;54257;54.496;18.412;2022-07-29T15:05:52;0.50;;;0.50;;
67372;SDS011;54257;54.496;18.412;2022-07-29T15:08:20;0.70;;;0.70;;
67372;SDS011;54257;54.496;18.412;2022-07-29T15:10:47;1.60;;;0.60;;
67372;SDS011;54257;54.496;18.412;2022-07-29T15:13:15;0.80;;;0.60;;
67372;SDS011;54257;54.496;18.412;2022-07-29T15:15:42;1.80;;;0.60;;
67372;SDS011;54257;54.496;18.412;2022-07-29T15:18:09;0.50;;;0.50;;
67372;SDS011;54257;54.496;18.412;2022-07-29T15:20:37;1.70;;;0.70;;
67372;SDS011;54257;54.496;18.412;2022-07-29T15:23:04;2.90;;;1.00;;
67372;SDS011;54257;54.496;18.412;2022-07-29T15:25:31;1.00;;;0.80;;
67372;SDS011;54257;54.496;18.412;2022-07-29T15:28:02;0.50;;;0.50;;
67372;SDS011;54257;54.496;18.412;2022-07-29T15:30:34;0.60;;;0.50;;
67372;SDS011;54257;54.496;18.412;2022-07-29T15:33:08;1.30;;;0.80;;
67372;SDS011;54257;54.496;18.412;2022-07-29T15:35:36;11.20;;;7.70;;
67372;SDS011;54257;54.496;18.412;2022-07-29T15:38:07;2.80;;;1.70;;
67372;SDS011;54257;54.496;18.412;2022-07-29T15:40:36;3.80;;;2.60;;
67372;SDS011;54257;54.496;18.412;2022-07-29T15:43:04;7.30;;;5.00;;
67372;SDS011;54257;54.496;18.412;2022-07-29T15:45:37;4.50;;;2.80;;
67372;SDS011;54257;54.496;18.412;2022-07-29T15:48:05;0.80;;;0.70;;
67372;SDS011;54257;54.496;18.412;2022-07-29T15:50:34;2.40;;;1.20;;
67372;SDS011;54257;54.496;18.412;2022-07-29T15:53:04;1.20;;;0.80;;